Latest Weather Observations for Longreach

IDQ60801

Issued at 1:32 pm EST Tuesday 26 May 2015 (issued every 30 minutes, with the page automatically refreshed every 10 minutes)

About weather observations | Map of weather stations | Latest weather observations for QLD | Other Formats
Station Details ID: 036031 Name: LONGREACH AERO Lat: -23.44 Lon: 144.28 Height: 192.2 m
Data from the previous 72 hours. | See also: Recent months at Longreach
Date/Time
EST
Temp
°C
App
Temp
°C
Dew
Point
Rel
Hum
%
Delta-T
°C
Wind Press
QNH
hPa
Press
MSL
hPa
Rain
since 9 am
mm
Dir
 
Spd
km/h
Gust
km/h
Spd
kts
Gust
kts
26/01:30pm 27.6 24.5 8.7 30 10.4 NNE 15 20 8 11 1021.4 - 0.2
26/01:00pm 26.4 23.4 9.1 33 9.5 NE 15 28 8 15 1022.2 - 0.2
26/12:30pm 26.4 22.8 9.9 35 9.2 NE 19 28 10 15 1022.9 - 0.2
26/12:00pm 25.8 21.2 9.7 36 8.9 NE 24 35 13 19 1023.5 1023.0 0.2
26/11:30am 25.4 20.9 9.9 37 8.6 NE 24 32 13 17 1024.1 - 0.2
26/11:00am 24.7 19.7 9.6 38 8.3 NE 26 35 14 19 1024.8 - 0.2
26/10:30am 24.0 18.8 10.3 42 7.6 NE 28 35 15 19 1025.0 - 0.0
26/10:00am 22.9 18.3 11.1 47 6.6 NE 26 32 14 17 1025.6 - 0.0
26/09:30am 21.3 16.9 11.6 54 5.4 ENE 26 33 14 18 1025.9 - 0.0
26/09:00am 20.7 17.1 11.7 56 5.0 ENE 22 30 12 16 1025.7 1025.3 0.0
26/08:30am 19.2 16.9 11.6 61 4.2 NE 15 19 8 10 1025.6 - -
26/08:00am 17.3 15.2 11.2 67 3.3 E 13 15 7 8 1025.4 - -
26/07:30am 15.9 14.6 11.1 73 2.6 E 9 9 5 5 1025.3 - -
26/07:00am 14.9 13.1 10.8 76 2.2 E 11 13 6 7 1024.8 - -
26/06:30am 14.9 12.7 10.8 76 2.2 E 13 13 7 7 1024.7 - -
26/05:30am 15.2 13.9 11.3 77 2.1 ENE 9 11 5 6 1023.9 - -
26/05:00am 16.1 14.4 11.3 73 2.6 ENE 11 15 6 8 1023.6 - -
26/04:30am 16.9 14.1 11.4 70 3.0 ENE 17 20 9 11 1023.4 - -
26/04:00am 16.9 14.5 11.4 70 3.0 ENE 15 22 8 12 1023.6 - -
26/03:30am 17.4 14.0 11.3 67 3.3 ENE 20 28 11 15 1023.6 - -
26/03:00am 17.6 14.2 11.4 67 3.4 E 20 26 11 14 1023.9 1023.4 -
26/02:30am 17.9 14.6 11.5 66 3.5 ENE 20 28 11 15 1024.1 - -
26/02:00am 17.9 14.5 11.3 65 3.6 E 20 26 11 14 1024.3 - -
26/01:30am 18.0 14.5 11.0 63 3.8 E 20 26 11 14 1024.8 - -
26/01:00am 18.0 14.4 10.6 62 4.0 E 20 26 11 14 1024.8 - -
26/12:30am 18.1 15.0 10.3 60 4.2 E 17 20 9 11 1024.9 - -
26/12:00am 18.4 14.9 10.2 59 4.4 E 19 26 10 14 1024.8 1024.3 -
 
Date/Time
EST
Temp
°C
App
Temp
°C
Dew
Point
Rel
Hum
%
Delta-T
°C
Wind Press
QNH
hPa
Press
MSL
hPa
Rain
since 9 am
mm
Dir
 
Spd
km/h
Gust
km/h
Spd
kts
Gust
kts
25/11:30pm 19.2 15.4 9.9 55 5.0 E 20 28 11 15 1024.8 - -
25/11:00pm 19.0 15.7 9.4 53 5.1 E 17 20 9 11 1024.8 - -
25/10:30pm 19.3 15.9 9.3 52 5.3 ESE 17 22 9 12 1024.6 - -
25/10:00pm 19.5 16.0 8.6 49 5.7 ESE 17 20 9 11 1024.4 - -
25/09:30pm 19.7 15.6 7.7 45 6.2 E 19 26 10 14 1024.2 - -
25/09:00pm 19.0 15.4 6.9 45 6.1 E 15 17 8 9 1024.2 1023.7 -
25/08:30pm 19.4 16.0 7.5 46 6.1 ESE 15 15 8 8 1023.9 - -
25/08:00pm 20.8 17.2 6.7 40 7.2 ESE 15 17 8 9 1023.7 - -
25/07:30pm 21.1 17.6 7.4 41 7.1 ESE 15 17 8 9 1023.3 - -
25/07:00pm 22.1 18.7 7.5 39 7.6 E 15 15 8 8 1023.3 - -
25/06:30pm 22.9 19.5 7.7 37 8.0 E 15 17 8 9 1022.8 - -
25/06:00pm 23.9 20.5 7.6 35 8.6 E 15 19 8 10 1022.9 1022.4 -
25/05:30pm 25.5 21.6 7.2 31 9.7 E 17 24 9 13 1022.7 - -
25/05:00pm 25.9 21.0 7.0 30 10.0 E 22 30 12 16 1022.0 - -
25/04:30pm 27.1 22.2 6.7 27 10.8 E 22 28 12 15 1021.7 - -
25/04:00pm 27.6 22.2 6.4 26 11.2 ENE 24 32 13 17 1021.5 - -
25/03:30pm 27.4 22.4 6.6 26 11.0 ENE 22 32 12 17 1021.6 - -
25/03:00pm 27.2 21.5 6.9 27 10.8 E 26 35 14 19 1021.4 1020.9 0.0
25/02:30pm 26.8 20.8 7.1 28 10.5 ENE 28 35 15 19 1021.7 - -
25/02:00pm 26.4 20.1 7.5 30 10.1 NE 30 37 16 20 1022.2 - -
25/01:30pm 27.2 21.8 8.0 29 10.4 ENE 26 33 14 18 1022.6 - -
25/01:00pm 27.1 21.0 8.4 30 10.2 NE 30 41 16 22 1023.2 - 0.0
25/12:00pm 25.7 19.2 8.0 32 9.5 ENE 32 41 17 22 1024.7 1024.2 0.0
25/11:30am 24.3 17.7 7.9 35 8.8 ENE 32 41 17 22 1025.0 - 0.0
25/11:00am 23.5 16.5 8.3 37 8.1 ENE 35 43 19 23 1025.4 - 0.0
25/10:30am 23.4 16.1 8.9 39 7.8 ENE 37 46 20 25 1025.9 - 0.0
25/10:00am 22.7 15.9 9.4 42 7.2 ENE 35 43 19 23 1026.5 - 0.0
25/09:30am 21.2 14.9 9.0 45 6.5 ENE 32 41 17 22 1026.8 - 0.0
25/09:00am 21.2 16.2 9.5 47 6.3 E 26 35 14 19 1026.6 1026.1 0.0
25/08:30am 18.7 14.7 9.0 53 5.1 E 20 30 11 16 1026.4 - 0.0
25/08:00am 17.6 13.7 8.5 55 4.7 ESE 19 24 10 13 1025.9 - 0.0
25/07:30am 15.5 11.9 8.2 62 3.7 E 17 19 9 10 1025.6 - 0.0
25/07:00am 14.9 11.6 8.2 64 3.4 ESE 15 19 8 10 1025.4 - 0.0
25/06:30am 15.2 11.6 8.5 64 3.4 ESE 17 20 9 11 1025.0 - 0.0
25/06:00am 16.5 13.4 9.0 61 3.9 E 15 20 8 11 1024.6 1024.1 0.0
25/05:30am 16.6 13.1 8.9 60 4.0 E 17 19 9 10 1024.3 - 0.0
25/05:00am 17.0 13.5 8.7 58 4.3 E 17 22 9 12 1023.7 - 0.0
25/04:30am 17.5 13.3 8.4 55 4.7 E 20 24 11 13 1023.6 - 0.0
25/04:00am 17.5 13.5 8.1 54 4.8 E 19 24 10 13 1023.5 - 0.0
25/03:30am 17.7 13.4 7.9 52 5.0 E 20 26 11 14 1023.4 - 0.0
25/03:00am 18.2 14.0 8.1 51 5.2 E 20 28 11 15 1023.2 1022.7 0.0
25/02:30am 18.7 14.4 8.0 49 5.5 E 20 26 11 14 1022.9 - 0.0
25/02:00am 19.3 14.6 7.9 47 5.9 E 22 28 12 15 1023.3 - 0.0
25/01:30am 19.6 14.9 7.8 46 6.1 E 22 28 12 15 1023.2 - 0.0
25/01:00am 20.0 14.5 7.6 44 6.4 E 26 33 14 18 1023.4 - 0.0
25/12:30am 20.1 15.0 7.5 44 6.5 E 24 32 13 17 1023.4 - 0.0
25/12:00am 20.4 15.2 7.1 42 6.8 E 24 33 13 18 1023.4 1022.9 0.0
 
Date/Time
EST
Temp
°C
App
Temp
°C
Dew
Point
Rel
Hum
%
Delta-T
°C
Wind Press
QNH
hPa
Press
MSL
hPa
Rain
since 9 am
mm
Dir
 
Spd
km/h
Gust
km/h
Spd
kts
Gust
kts
24/11:30pm 20.3 15.1 7.2 42 6.7 E 24 30 13 16 1023.3 - 0.0
24/11:00pm 20.7 16.3 7.3 42 6.9 E 20 26 11 14 1023.4 - 0.0
24/10:30pm 21.2 15.8 7.8 42 7.0 E 26 33 14 18 1023.7 - 0.0
24/10:00pm 21.8 16.2 7.3 39 7.5 E 26 33 14 18 1023.6 - 0.0
24/09:30pm 21.2 16.7 7.0 39 7.3 E 20 26 11 14 1023.2 - 0.0
24/09:00pm 21.7 17.7 6.7 37 7.7 ESE 17 19 9 10 1023.4 1022.9 0.0
24/08:30pm 21.5 17.9 6.9 38 7.5 ESE 15 17 8 9 1023.4 - 0.0
24/08:00pm 21.9 18.8 7.2 38 7.6 SE 13 17 7 9 1023.4 - 0.0
24/07:30pm 22.5 19.0 7.3 37 7.9 ESE 15 17 8 9 1022.9 - 0.0
24/07:00pm 22.6 19.3 8.0 39 7.7 E 15 17 8 9 1022.5 - 0.0
24/06:30pm 22.9 19.6 8.2 39 7.8 E 15 15 8 8 1022.1 - 0.0
24/06:00pm 24.3 20.2 8.0 35 8.7 E 19 28 10 15 1021.8 1021.3 0.0
24/05:30pm 25.3 19.8 7.7 32 9.4 ENE 26 33 14 18 1021.2 - 0.0
24/05:00pm 25.4 19.9 7.6 32 9.5 ENE 26 32 14 17 1021.1 - 0.0
24/04:30pm 26.0 20.5 7.4 30 9.9 ENE 26 35 14 19 1021.3 - 0.0
24/04:00pm 26.7 22.4 7.8 30 10.2 ENE 20 33 11 18 1021.1 - 0.0
24/03:30pm 26.8 21.7 7.6 29 10.3 ENE 24 33 13 18 1020.9 - 0.0
24/03:00pm 26.7 21.3 8.0 30 10.1 ENE 26 35 14 19 1020.9 1020.4 0.0
24/02:46pm 26.6 20.7 7.3 29 10.3 ENE 28 46 15 25 1020.9 - 0.0
24/02:30pm 26.7 20.9 7.8 30 10.2 NE 28 39 15 21 1021.0 - 0.0
24/02:00pm 25.9 20.9 8.1 32 9.6 ENE 24 37 13 20 1021.5 - 0.0
24/01:30pm 26.1 21.1 7.9 31 9.8 E 24 35 13 19 1021.8 - 0.0
24/01:00pm 25.3 19.5 7.9 33 9.3 ENE 28 37 15 20 1022.3 - 0.0
24/12:30pm 25.2 20.1 7.5 32 9.4 ENE 24 35 13 19 1023.0 - 0.0
24/12:00pm 24.7 19.6 7.8 34 9.0 ENE 24 33 13 18 1023.5 1023.0 0.0
24/11:30am 23.7 17.1 7.6 35 8.5 E 32 43 17 23 1023.9 - 0.0
24/11:00am 22.5 16.2 7.6 38 7.8 E 30 41 16 22 1024.1 - 0.0
24/10:30am 21.6 14.5 8.1 42 7.1 ENE 35 46 19 25 1024.4 - 0.0
24/10:00am 20.8 13.3 7.9 43 6.7 E 37 50 20 27 1024.6 - 0.0
24/09:30am 19.5 12.1 6.9 44 6.4 E 35 43 19 23 1024.3 - 0.0
24/09:00am 17.6 11.7 5.7 45 5.8 E 26 33 14 18 1024.2 1023.7 0.0
24/08:30am 15.6 10.8 5.4 50 4.9 ESE 20 28 11 15 1024.2 - 0.0
24/08:00am 13.3 9.3 4.9 57 3.9 SE 15 20 8 11 1024.2 - 0.0
24/07:30am 11.7 7.6 4.4 61 3.3 SE 15 19 8 10 1023.8 - 0.0
24/07:00am 11.2 6.8 4.9 65 2.9 SE 17 19 9 10 1023.4 - 0.0
24/06:30am 11.5 7.1 4.5 62 3.2 ESE 17 20 9 11 1023.0 - 0.0
24/06:00am 11.6 7.2 4.6 62 3.2 SE 17 20 9 11 1022.8 1022.3 0.0
24/05:30am 11.7 6.9 4.4 61 3.3 ESE 19 22 10 12 1022.4 - 0.0
24/05:00am 11.7 7.3 4.5 61 3.3 ESE 17 20 9 11 1022.1 - 0.0
24/04:30am 12.0 7.6 4.6 60 3.4 ESE 17 19 9 10 1022.0 - 0.0
24/04:00am 12.2 7.8 4.8 60 3.4 ESE 17 19 9 10 1022.0 - 0.0
24/03:30am 12.6 8.3 5.1 60 3.5 SE 17 19 9 10 1022.3 - 0.0
24/03:00am 12.7 8.8 5.2 60 3.5 SE 15 19 8 10 1022.3 1021.8 0.0
24/02:30am 13.0 8.8 5.8 61 3.4 SE 17 19 9 10 1022.1 - 0.0
24/02:00am 13.4 9.6 5.8 60 3.6 SE 15 19 8 10 1022.4 - 0.0
24/01:30am 13.8 9.6 5.8 58 3.8 SE 17 19 9 10 1022.4 - 0.0
24/01:00am 14.3 10.2 6.2 58 3.9 SE 17 20 9 11 1022.1 - 0.0
24/12:30am 14.7 10.2 6.0 56 4.2 SE 19 24 10 13 1022.1 - 0.0
24/12:00am 14.7 10.0 6.0 56 4.2 SE 20 24 11 13 1022.1 1021.6 0.0
 
Date/Time
EST
Temp
°C
App
Temp
°C
Dew
Point
Rel
Hum
%
Delta-T
°C
Wind Press
QNH
hPa
Press
MSL
hPa
Rain
since 9 am
mm
Dir
 
Spd
km/h
Gust
km/h
Spd
kts
Gust
kts
23/11:30pm 14.4 10.6 5.6 55 4.2 SE 15 19 8 10 1022.4 - 0.0
23/11:00pm 14.1 10.6 5.5 56 4.1 SSE 13 13 7 7 1022.5 - 0.0
23/10:30pm 14.8 10.9 5.3 53 4.5 SE 15 15 8 8 1022.4 - 0.0
23/10:00pm 14.9 12.1 5.2 52 4.6 SE 9 11 5 6 1022.5 - 0.0
23/09:30pm 15.4 12.3 5.4 51 4.8 SSE 11 13 6 7 1022.2 - 0.0
23/09:00pm 15.4 12.8 6.1 54 4.5 SSE 9 9 5 5 1022.1 1021.6 0.0
23/08:30pm 16.2 12.6 4.9 47 5.4 SSE 13 17 7 9 1021.9 - 0.0
23/08:00pm 16.7 13.6 5.6 48 5.4 SSE 11 11 6 6 1021.6 - 0.0
23/07:30pm 17.9 14.2 4.5 41 6.4 S 13 15 7 8 1021.5 - 0.0
23/07:00pm 18.5 14.8 4.6 40 6.7 S 13 15 7 8 1021.2 - 0.0
23/06:30pm 19.6 15.9 4.3 36 7.4 S 13 15 7 8 1021.0 - 0.0
23/06:00pm 20.8 16.7 4.1 33 8.1 SSE 15 17 8 9 1020.9 1020.4 0.0
23/05:30pm 21.9 17.2 3.2 29 9.0 SSE 17 22 9 12 1020.6 - 0.0
23/05:00pm 22.4 17.6 2.4 27 9.5 SSE 17 24 9 13 1020.5 - 0.0
23/04:30pm 22.6 17.8 2.8 27 9.5 SE 17 22 9 12 1020.3 - 0.0
23/04:00pm 23.3 18.4 2.0 24 10.1 ESE 17 20 9 11 1020.4 - 0.0
23/03:30pm 22.9 17.6 1.6 24 10.0 ESE 19 30 10 16 1020.3 - 0.0
23/03:00pm 23.7 19.3 2.5 25 10.2 SE 15 20 8 11 1020.6 1020.1 0.0
23/02:30pm 22.3 17.4 2.2 26 9.5 ESE 17 28 9 15 1020.8 - 0.0
23/02:00pm 22.7 17.3 2.3 26 9.7 ESE 20 28 11 15 1021.2 - 0.0

Other Formats:

Comma delimited format used in spreadsheet applications
http://www.bom.gov.au/fwo/IDQ60801/IDQ60801.94346.axf

JavaScript Object Notation format (JSON) in row-major order
http://www.bom.gov.au/fwo/IDQ60801/IDQ60801.94346.json